createdAt,value
2019-03-09T00:01:58.306Z,99562.83
2019-03-09T00:04:29.581Z,99551.64
2019-03-09T00:07:00.973Z,99553.66
2019-03-09T00:09:32.616Z,99549.30
2019-03-09T00:12:03.940Z,99541.27
2019-03-09T00:14:35.162Z,99540.17
2019-03-09T00:17:06.378Z,99541.51
2019-03-09T00:19:37.611Z,99535.66
2019-03-09T00:22:08.948Z,99529.84
2019-03-09T00:24:45.071Z,99531.05
2019-03-09T00:27:17.914Z,99536.65
2019-03-09T00:29:57.606Z,99541.39
2019-03-09T00:32:29.000Z,99541.52
2019-03-09T00:35:00.297Z,99521.33
2019-03-09T00:37:31.465Z,99517.80
2019-03-09T00:40:02.686Z,99519.38
2019-03-09T00:42:33.914Z,99522.19
2019-03-09T00:45:06.209Z,99525.39
2019-03-09T00:47:37.420Z,99521.23
2019-03-09T00:50:10.451Z,99521.50
2019-03-09T00:52:41.660Z,99523.41
2019-03-09T00:55:13.870Z,99529.18
2019-03-09T00:57:45.202Z,99526.25
2019-03-09T01:00:18.484Z,99519.39
2019-03-09T01:02:51.169Z,99515.45
2019-03-09T01:05:22.790Z,99522.11
2019-03-09T01:07:53.854Z,99520.06
2019-03-09T01:10:25.072Z,99514.09
2019-03-09T01:12:56.276Z,99518.41
2019-03-09T01:15:27.469Z,99515.75
2019-03-09T01:17:58.748Z,99514.22
2019-03-09T01:20:31.139Z,99518.04
2019-03-09T01:23:02.439Z,99513.06
2019-03-09T01:25:33.535Z,99514.22
2019-03-09T01:28:04.873Z,99511.06
2019-03-09T01:30:36.101Z,99511.91
2019-03-09T01:33:07.268Z,99522.37
2019-03-09T01:35:38.593Z,99519.39
2019-03-09T01:38:09.803Z,99517.69
2019-03-09T01:40:41.038Z,99525.77
2019-03-09T01:43:12.269Z,99536.52
2019-03-09T01:45:43.472Z,99524.25
2019-03-09T01:48:14.747Z,99529.17
2019-03-09T01:50:46.114Z,99524.92
2019-03-09T01:53:17.184Z,99515.13
2019-03-09T01:55:48.479Z,99520.05
2019-03-09T01:58:19.925Z,99510.88
2019-03-09T02:00:51.127Z,99517.02
2019-03-09T02:03:22.411Z,99515.00
2019-03-09T02:05:53.570Z,99517.88
2019-03-09T02:08:24.655Z,99529.05
2019-03-09T02:10:55.919Z,99535.61
2019-03-09T02:13:27.135Z,99541.07
2019-03-09T02:15:58.736Z,99548.06
2019-03-09T02:18:30.091Z,99541.40
2019-03-09T02:21:01.445Z,99535.06
2019-03-09T02:23:32.728Z,99525.20
2019-03-09T02:26:03.924Z,99518.41
2019-03-09T02:28:35.050Z,99523.27
2019-03-09T02:31:06.427Z,99528.06
2019-03-09T02:33:37.767Z,99519.48
2019-03-09T02:36:09.128Z,99512.34
2019-03-09T02:38:42.046Z,99515.98
2019-03-09T02:41:13.461Z,99510.25
2019-03-09T02:43:44.707Z,99497.73
2019-03-09T02:46:15.905Z,99506.67
2019-03-09T02:48:47.056Z,99510.61
2019-03-09T02:51:18.312Z,99508.91
2019-03-09T02:53:49.702Z,99512.84
2019-03-09T02:56:20.953Z,99508.22
2019-03-09T02:58:52.289Z,99510.53
2019-03-09T03:01:25.084Z,99512.55
2019-03-09T03:03:56.217Z,99510.48
2019-03-09T03:06:27.511Z,99513.27
2019-03-09T03:08:58.780Z,99508.55
2019-03-09T03:11:29.988Z,99516.92
2019-03-09T03:14:01.116Z,99512.84
2019-03-09T03:16:32.347Z,99505.17
2019-03-09T03:19:03.490Z,99506.44
2019-03-09T03:21:34.824Z,99505.98
2019-03-09T03:24:06.167Z,99517.22
2019-03-09T03:26:37.309Z,99519.16
2019-03-09T03:29:08.541Z,99507.55
2019-03-09T03:31:39.791Z,99501.11
2019-03-09T03:34:11.242Z,99501.91
2019-03-09T03:36:42.318Z,99512.86
2019-03-09T03:39:13.482Z,99511.00
2019-03-09T03:41:44.675Z,99514.67
2019-03-09T03:44:15.839Z,99510.45
2019-03-09T03:46:47.063Z,99494.70
2019-03-09T03:49:18.400Z,99492.56
2019-03-09T03:51:50.773Z,99491.73
2019-03-09T03:54:21.888Z,99500.70
2019-03-09T03:56:53.038Z,99499.44
2019-03-09T03:59:24.423Z,99494.38
2019-03-09T04:01:55.765Z,99500.41
2019-03-09T04:04:26.967Z,99486.81
2019-03-09T04:06:58.129Z,99485.31
2019-03-09T04:09:29.426Z,99482.64
2019-03-09T04:12:00.678Z,99486.97
2019-03-09T04:14:31.906Z,99493.73
2019-03-09T04:17:03.139Z,99500.41
2019-03-09T04:19:34.474Z,99505.95
2019-03-09T04:22:05.858Z,99505.47
2019-03-09T04:24:38.735Z,99502.36
2019-03-09T04:27:09.995Z,99500.83
2019-03-09T04:29:41.740Z,99505.40
2019-03-09T04:32:13.038Z,99518.67
2019-03-09T04:34:44.262Z,99514.02
2019-03-09T04:37:15.417Z,99523.83
2019-03-09T04:39:46.623Z,99521.37
2019-03-09T04:42:17.928Z,99525.16
2019-03-09T04:44:49.091Z,99529.86
2019-03-09T04:47:20.220Z,99534.12
2019-03-09T04:49:51.554Z,99532.55
2019-03-09T04:52:22.897Z,99510.68
2019-03-09T04:54:54.114Z,99520.87
2019-03-09T04:57:25.739Z,99545.27
2019-03-09T04:59:56.984Z,99545.27
2019-03-09T05:02:28.209Z,99551.81
2019-03-09T05:04:59.561Z,99545.48
2019-03-09T05:07:30.929Z,99545.85
2019-03-09T05:10:08.220Z,99546.81
2019-03-09T05:12:39.545Z,99532.04
2019-03-09T05:15:13.719Z,99521.48
2019-03-09T05:17:45.030Z,99519.38
2019-03-09T05:20:16.284Z,99538.22
2019-03-09T05:22:47.580Z,99537.93
2019-03-09T05:25:18.861Z,99541.75
2019-03-09T05:27:50.083Z,99550.48
2019-03-09T05:30:38.434Z,99554.16
2019-03-09T05:33:09.605Z,99560.42
2019-03-09T05:35:40.814Z,99555.46
2019-03-09T05:38:12.019Z,99538.63
2019-03-09T05:40:44.338Z,99548.19
2019-03-09T05:43:15.572Z,99554.11
2019-03-09T05:45:46.751Z,99554.96
2019-03-09T05:48:18.000Z,99549.58
2019-03-09T05:50:49.243Z,99553.13
2019-03-09T05:53:20.892Z,99561.88
2019-03-09T05:55:52.039Z,99557.44
2019-03-09T05:58:23.374Z,99552.06
2019-03-09T06:00:54.639Z,99553.83
2019-03-09T06:03:25.870Z,99555.98
2019-03-09T06:05:57.376Z,99547.23
2019-03-09T06:08:28.542Z,99533.84
2019-03-09T06:10:59.662Z,99531.89
2019-03-09T06:13:30.865Z,99539.15
2019-03-09T06:16:02.098Z,99549.86
2019-03-09T06:18:33.330Z,99553.34
2019-03-09T06:21:04.578Z,99560.48
2019-03-09T06:23:35.837Z,99560.39
2019-03-09T06:26:07.250Z,99566.57
2019-03-09T06:28:38.589Z,99572.06
2019-03-09T06:31:09.983Z,99577.61
2019-03-09T06:33:41.303Z,99588.93
2019-03-09T06:36:21.998Z,99579.08
2019-03-09T06:38:56.393Z,99571.37
2019-03-09T06:41:43.052Z,99566.03
2019-03-09T06:44:14.448Z,99562.31
2019-03-09T06:46:45.818Z,99547.72
2019-03-09T06:49:17.679Z,99550.09
2019-03-09T06:51:49.023Z,99549.73
2019-03-09T06:54:20.372Z,99551.25
2019-03-09T06:56:51.610Z,99558.48
2019-03-09T06:59:23.033Z,99553.84
2019-03-09T07:01:54.293Z,99565.23
2019-03-09T07:04:25.610Z,99574.67
2019-03-09T07:06:57.005Z,99588.27
2019-03-09T07:09:28.443Z,99576.38
2019-03-09T07:11:59.770Z,99572.52
2019-03-09T07:14:54.045Z,99575.31
2019-03-09T07:17:25.511Z,99570.64
2019-03-09T07:19:56.859Z,99569.38
2019-03-09T07:22:28.206Z,99558.87
2019-03-09T07:24:59.995Z,99557.94
2019-03-09T07:27:31.376Z,99568.58
2019-03-09T07:30:06.211Z,99559.44
2019-03-09T07:32:37.630Z,99572.77
2019-03-09T07:35:09.301Z,99571.72
2019-03-09T07:37:40.683Z,99585.05
2019-03-09T07:40:13.291Z,99571.11
2019-03-09T07:42:44.644Z,99574.63
2019-03-09T07:45:16.066Z,99574.83
2019-03-09T07:47:47.515Z,99554.52
2019-03-09T07:50:18.783Z,99549.05
2019-03-09T07:52:50.243Z,99543.64
2019-03-09T07:55:24.246Z,99539.26
2019-03-09T07:57:59.810Z,99534.24
2019-03-09T08:00:31.241Z,99530.72
2019-03-09T08:03:02.657Z,99529.98
2019-03-09T08:05:34.078Z,99532.45
2019-03-09T08:08:05.623Z,99533.57
2019-03-09T08:10:36.968Z,99546.11
2019-03-09T08:13:08.176Z,99550.73
2019-03-09T08:15:39.468Z,99551.47
2019-03-09T08:18:10.975Z,99549.24
2019-03-09T08:20:42.371Z,99541.56
2019-03-09T08:23:13.818Z,99533.12
2019-03-09T08:25:45.395Z,99521.56
2019-03-09T08:28:16.817Z,99514.91
2019-03-09T08:30:48.110Z,99523.28
2019-03-09T08:33:19.578Z,99530.61
2019-03-09T08:35:51.055Z,99528.66
2019-03-09T08:38:22.327Z,99514.09
2019-03-09T08:40:53.951Z,99507.56
2019-03-09T08:43:25.454Z,99496.39
2019-03-09T08:45:56.802Z,99492.94
2019-03-09T08:48:29.197Z,99507.97
2019-03-09T08:51:00.643Z,99517.30
2019-03-09T08:53:31.983Z,99514.27
2019-03-09T08:56:03.378Z,99522.66
2019-03-09T08:58:34.850Z,99519.52
2019-03-09T09:01:06.323Z,99525.74
2019-03-09T09:03:37.794Z,99523.68
2019-03-09T09:06:09.115Z,99518.61
2019-03-09T09:08:40.685Z,99508.36
2019-03-09T09:11:12.113Z,99491.70
2019-03-09T09:13:43.517Z,99496.66
2019-03-09T09:16:15.281Z,99487.23
2019-03-09T09:18:46.715Z,99496.16
2019-03-09T09:21:17.921Z,99513.27
2019-03-09T09:23:49.182Z,99549.78
2019-03-09T09:26:20.644Z,99575.28
2019-03-09T09:28:51.892Z,99563.15
2019-03-09T09:31:23.368Z,99552.95
2019-03-09T09:33:54.628Z,99543.30
2019-03-09T09:36:26.059Z,99546.81
2019-03-09T09:38:57.351Z,99525.62
2019-03-09T09:41:28.893Z,99515.39
2019-03-09T09:44:00.241Z,99516.31
2019-03-09T09:46:31.656Z,99503.39
2019-03-09T09:49:03.426Z,99500.57
2019-03-09T09:51:34.795Z,99500.53
2019-03-09T09:54:06.229Z,99505.20
2019-03-09T09:56:37.596Z,99511.17
2019-03-09T09:59:09.213Z,99504.70
2019-03-09T10:01:40.599Z,99493.82
2019-03-09T10:04:11.977Z,99485.41
2019-03-09T10:06:43.436Z,99485.77
2019-03-09T10:09:15.770Z,99477.99
2019-03-09T10:11:47.282Z,99458.64
2019-03-09T10:14:18.816Z,99463.30
2019-03-09T10:16:50.150Z,99457.80
2019-03-09T10:19:21.499Z,99465.44
2019-03-09T10:21:53.047Z,99465.59
2019-03-09T10:24:24.640Z,99470.62
2019-03-09T10:26:55.977Z,99467.03
2019-03-09T10:29:27.408Z,99469.78
2019-03-09T10:31:58.869Z,99483.57
2019-03-09T10:34:30.299Z,99507.80
2019-03-09T10:37:01.587Z,99520.91
2019-03-09T10:39:32.942Z,99515.95
2019-03-09T10:42:05.504Z,99515.17
2019-03-09T10:44:36.843Z,99525.53
2019-03-09T10:47:11.344Z,99521.13
2019-03-09T10:49:47.433Z,99495.77
2019-03-09T10:52:18.752Z,99497.14
2019-03-09T10:54:53.257Z,99509.31
2019-03-09T10:57:24.593Z,99511.84
2019-03-09T10:59:55.916Z,99488.44
2019-03-09T11:02:27.365Z,99466.69
2019-03-09T11:05:01.613Z,99454.38
2019-03-09T11:07:32.931Z,99448.80
2019-03-09T11:10:07.062Z,99462.67
2019-03-09T11:12:38.833Z,99474.42
2019-03-09T11:15:15.100Z,99450.57
2019-03-09T11:17:46.748Z,99436.42
2019-03-09T11:20:19.383Z,99433.08
2019-03-09T11:22:50.755Z,99430.93
2019-03-09T11:25:22.098Z,99423.02
2019-03-09T11:27:53.587Z,99433.85
2019-03-09T11:30:29.500Z,99443.39
2019-03-09T11:33:00.884Z,99449.17
2019-03-09T11:35:32.941Z,99438.33
2019-03-09T11:38:05.325Z,99436.50
2019-03-09T11:40:35.967Z,99445.88
2019-03-09T11:43:07.161Z,99450.08
2019-03-09T11:45:39.581Z,99429.04
2019-03-09T11:48:11.066Z,99405.28
2019-03-09T11:50:43.162Z,99396.23
2019-03-09T11:53:13.839Z,99405.20
2019-03-09T11:55:44.999Z,99419.16
2019-03-09T11:58:16.447Z,99415.71
2019-03-09T12:00:48.294Z,99417.75
2019-03-09T12:03:20.458Z,99414.57
2019-03-09T12:05:51.643Z,99405.16
2019-03-09T12:08:24.447Z,99407.72
2019-03-09T12:10:57.403Z,99406.23
2019-03-09T12:13:28.837Z,99406.59
2019-03-09T12:16:00.322Z,99400.39
2019-03-09T12:18:31.633Z,99393.49
2019-03-09T12:21:02.982Z,99394.72
2019-03-09T12:23:34.401Z,99399.97
2019-03-09T12:26:11.160Z,99397.53
2019-03-09T12:28:42.417Z,99400.11
2019-03-09T12:31:14.192Z,99393.62
2019-03-09T12:33:45.492Z,99385.23
2019-03-09T12:36:16.836Z,99386.07
2019-03-09T12:38:48.121Z,99384.00
2019-03-09T12:41:19.453Z,99383.27
2019-03-09T12:43:50.818Z,99383.27
2019-03-09T12:46:22.168Z,99370.67
2019-03-09T12:48:53.550Z,99371.69
2019-03-09T12:51:24.789Z,99374.63
2019-03-09T12:53:56.150Z,99376.67
2019-03-09T12:56:27.526Z,99368.36
2019-03-09T12:58:58.691Z,99378.75
2019-03-09T13:01:30.147Z,99368.17
2019-03-09T13:04:01.539Z,99369.70
2019-03-09T13:06:32.942Z,99367.33
2019-03-09T13:09:04.783Z,99365.36
2019-03-09T13:11:37.700Z,99359.92
2019-03-09T13:14:09.151Z,99364.67
2019-03-09T13:16:40.525Z,99368.03
2019-03-09T13:19:11.814Z,99366.50
2019-03-09T13:21:43.133Z,99362.75
2019-03-09T13:24:14.568Z,99361.05
2019-03-09T13:26:46.026Z,99360.86
2019-03-09T13:29:17.598Z,99356.44
2019-03-09T13:31:48.993Z,99358.52
2019-03-09T13:34:20.321Z,99359.81
2019-03-09T13:36:51.779Z,99352.59
2019-03-09T13:39:23.263Z,99354.14
2019-03-09T13:41:54.613Z,99355.60
2019-03-09T13:44:25.940Z,99356.62
2019-03-09T13:46:57.379Z,99356.39
2019-03-09T13:49:28.828Z,99354.33
2019-03-09T13:52:00.206Z,99350.31
2019-03-09T13:54:31.568Z,99341.22
2019-03-09T13:57:02.973Z,99333.94
2019-03-09T13:59:34.316Z,99328.16
2019-03-09T14:02:05.784Z,99320.52
2019-03-09T14:04:37.114Z,99321.93
2019-03-09T14:07:08.427Z,99329.42
2019-03-09T14:09:39.788Z,99327.69
2019-03-09T14:12:11.067Z,99319.86
2019-03-09T14:14:42.520Z,99320.67
2019-03-09T14:17:14.010Z,99317.63
2019-03-09T14:19:45.382Z,99318.68
2019-03-09T14:22:16.870Z,99315.70
2019-03-09T14:24:48.197Z,99315.09
2019-03-09T14:27:19.452Z,99315.04
2019-03-09T14:29:50.821Z,99313.20
2019-03-09T14:32:22.104Z,99313.89
2019-03-09T14:34:53.506Z,99310.93
2019-03-09T14:37:24.944Z,99307.09
2019-03-09T14:39:56.272Z,99304.95
2019-03-09T14:42:27.767Z,99300.14
2019-03-09T14:44:59.121Z,99304.62
2019-03-09T14:47:30.591Z,99303.56
2019-03-09T14:50:01.970Z,99302.64
2019-03-09T14:52:33.370Z,99299.95
2019-03-09T14:55:06.347Z,99308.45
2019-03-09T14:57:37.780Z,99300.79
2019-03-09T15:00:23.442Z,99299.74
2019-03-09T15:02:54.706Z,99300.47
2019-03-09T15:05:26.069Z,99302.23
2019-03-09T15:07:57.510Z,99294.55
2019-03-09T15:10:28.791Z,99301.31
2019-03-09T15:13:00.179Z,99296.52
2019-03-09T15:15:31.527Z,99293.00
2019-03-09T15:18:02.785Z,99288.53
2019-03-09T15:20:34.088Z,99286.47
2019-03-09T15:23:05.448Z,99282.77
2019-03-09T15:25:36.769Z,99273.14
2019-03-09T15:28:08.290Z,99270.83
2019-03-09T15:30:39.688Z,99265.36
2019-03-09T15:33:11.071Z,99262.84
2019-03-09T15:35:42.421Z,99261.06
2019-03-09T15:38:13.896Z,99260.59
2019-03-09T15:40:45.340Z,99262.13
2019-03-09T15:43:16.715Z,99257.97
2019-03-09T15:45:48.131Z,99259.93
2019-03-09T15:48:19.616Z,99261.80
2019-03-09T15:50:50.890Z,99263.75
2019-03-09T15:53:22.269Z,99259.06
2019-03-09T15:55:53.555Z,99260.74
2019-03-09T15:58:24.691Z,99257.66
2019-03-09T16:00:56.045Z,99256.03
2019-03-09T16:03:27.343Z,99249.30
2019-03-09T16:05:58.600Z,99252.23
2019-03-09T16:08:29.882Z,99255.95
2019-03-09T16:11:01.282Z,99252.70
2019-03-09T16:13:32.598Z,99252.23
2019-03-09T16:16:03.940Z,99256.73
2019-03-09T16:18:35.320Z,99255.04
2019-03-09T16:21:06.681Z,99247.99
2019-03-09T16:23:37.943Z,99241.97
2019-03-09T16:26:09.204Z,99235.21
2019-03-09T16:28:40.646Z,99232.63
2019-03-09T16:31:12.107Z,99234.45
2019-03-09T16:33:43.452Z,99235.05
2019-03-09T16:36:14.936Z,99230.72
2019-03-09T16:38:47.244Z,99229.88
2019-03-09T16:41:19.736Z,99236.68
2019-03-09T16:43:51.170Z,99236.36
2019-03-09T16:46:22.573Z,99233.42
2019-03-09T16:48:54.014Z,99227.75
2019-03-09T16:51:25.426Z,99228.03
2019-03-09T16:53:56.807Z,99227.03
2019-03-09T16:56:28.229Z,99230.11
2019-03-09T16:58:59.699Z,99229.13
2019-03-09T17:01:31.057Z,99223.84
2019-03-09T17:04:02.466Z,99227.36
2019-03-09T17:06:33.866Z,99228.16
2019-03-09T17:09:05.980Z,99230.78
2019-03-09T17:11:38.881Z,99239.01
2019-03-09T17:14:10.350Z,99234.31
2019-03-09T17:16:41.627Z,99227.00
2019-03-09T17:19:13.530Z,99227.47
2019-03-09T17:21:46.129Z,99228.62
2019-03-09T17:24:17.508Z,99214.44
2019-03-09T17:26:48.832Z,99218.61
2019-03-09T17:29:20.263Z,99213.14
2019-03-09T17:31:51.624Z,99201.67
2019-03-09T17:34:22.880Z,99191.77
2019-03-09T17:36:54.247Z,99195.18
2019-03-09T17:39:25.607Z,99199.70
2019-03-09T17:41:56.751Z,99193.98
2019-03-09T17:44:28.235Z,99188.48
2019-03-09T17:46:59.708Z,99191.66
2019-03-09T17:49:30.927Z,99198.02
2019-03-09T17:52:02.382Z,99197.08
2019-03-09T17:54:33.590Z,99196.16
2019-03-09T17:57:06.662Z,99197.88
2019-03-09T17:59:38.239Z,99194.66
2019-03-09T18:02:09.712Z,99198.73
2019-03-09T18:04:41.113Z,99195.16
2019-03-09T18:07:12.731Z,99199.77
2019-03-09T18:09:45.764Z,99197.00
2019-03-09T18:12:18.777Z,99189.60
2019-03-09T18:14:51.876Z,99185.18
2019-03-09T18:17:25.384Z,99184.41
2019-03-09T18:19:56.727Z,99182.72
2019-03-09T18:22:28.437Z,99182.05
2019-03-09T18:25:02.962Z,99182.60
2019-03-09T18:27:36.381Z,99173.70
2019-03-09T18:30:10.428Z,99175.47
2019-03-09T18:32:45.066Z,99172.51
2019-03-09T18:35:16.831Z,99173.31
2019-03-09T18:37:48.245Z,99170.19
2019-03-09T18:40:19.641Z,99165.63
2019-03-09T18:43:01.054Z,99164.16
2019-03-09T18:45:32.921Z,99169.84
2019-03-09T18:48:09.288Z,99172.00
2019-03-09T18:50:44.695Z,99165.91
2019-03-09T18:53:19.189Z,99164.00
2019-03-09T18:55:58.923Z,99158.06
2019-03-09T18:58:25.199Z,99168.98
2019-03-09T19:00:58.475Z,99156.36
2019-03-09T19:03:31.123Z,99154.47
2019-03-09T19:06:04.337Z,99144.70
2019-03-09T19:08:36.097Z,99145.77
2019-03-09T19:11:07.661Z,99145.19
2019-03-09T19:13:39.180Z,99148.62
2019-03-09T19:16:10.642Z,99138.52
2019-03-09T19:18:42.036Z,99136.70
2019-03-09T19:21:14.428Z,99137.49
2019-03-09T19:23:45.801Z,99137.77
2019-03-09T19:26:17.054Z,99131.10
2019-03-09T19:28:49.491Z,99123.17
2019-03-09T19:31:20.985Z,99126.19
2019-03-09T19:33:52.336Z,99116.11
2019-03-09T19:36:23.895Z,99120.09
2019-03-09T19:38:55.234Z,99122.44
2019-03-09T19:41:26.657Z,99113.99
2019-03-09T19:43:58.106Z,99120.72
2019-03-09T19:46:29.577Z,99111.58
2019-03-09T19:49:02.107Z,99116.42
2019-03-09T19:51:34.235Z,99110.41
2019-03-09T19:54:05.900Z,99104.77
2019-03-09T19:56:37.398Z,99100.64
2019-03-09T19:59:10.426Z,99091.12
2019-03-09T20:01:45.267Z,99097.56
2019-03-09T20:04:17.357Z,99087.84
2019-03-09T20:06:48.712Z,99093.98
2019-03-09T20:09:22.762Z,99094.34
2019-03-09T20:11:55.665Z,99094.34
2019-03-09T20:14:26.986Z,99089.74
2019-03-09T20:16:58.450Z,99085.07
2019-03-09T20:19:29.892Z,99087.88
2019-03-09T20:22:01.211Z,99089.81
2019-03-09T20:24:33.821Z,99084.22
2019-03-09T20:27:05.259Z,99082.52
2019-03-09T20:29:36.579Z,99072.59
2019-03-09T20:32:07.912Z,99075.92
2019-03-09T20:34:39.634Z,99065.30
2019-03-09T20:37:15.130Z,99064.77
2019-03-09T20:39:46.519Z,99062.65
2019-03-09T20:42:17.989Z,99063.19
2019-03-09T20:44:49.384Z,99055.55
2019-03-09T20:47:20.827Z,99044.77
2019-03-09T20:49:52.305Z,99039.66
2019-03-09T20:52:26.462Z,99037.73
2019-03-09T20:54:57.810Z,99034.65
2019-03-09T20:57:29.201Z,99034.60
2019-03-09T21:00:00.664Z,99033.66
2019-03-09T21:02:32.527Z,99028.66
2019-03-09T21:05:04.885Z,99027.15
2019-03-09T21:07:36.208Z,99019.63
2019-03-09T21:10:10.764Z,99013.08
2019-03-09T21:13:00.382Z,99016.29
2019-03-09T21:15:32.910Z,99007.56
2019-03-09T21:18:05.050Z,98998.55
2019-03-09T21:20:36.559Z,98989.39
2019-03-09T21:23:07.804Z,98981.41
2019-03-09T21:25:39.240Z,98976.14
2019-03-09T21:28:11.087Z,98964.45
2019-03-09T21:30:42.422Z,98955.00
2019-03-09T21:33:13.802Z,98961.41
2019-03-09T21:35:45.240Z,98965.00
2019-03-09T21:38:16.676Z,98966.56
2019-03-09T21:40:48.040Z,98964.87
2019-03-09T21:43:20.707Z,98961.90
2019-03-09T21:45:52.126Z,98955.10
2019-03-09T21:48:23.617Z,98960.70
2019-03-09T21:50:54.948Z,98963.89
2019-03-09T21:53:26.279Z,98950.67
2019-03-09T21:55:57.753Z,98950.26
2019-03-09T21:58:29.448Z,98941.85
2019-03-09T22:01:01.126Z,98942.95
2019-03-09T22:03:32.555Z,98937.67
2019-03-09T22:06:06.277Z,98936.02
2019-03-09T22:08:37.069Z,98938.64
2019-03-09T22:11:09.561Z,98934.65
2019-03-09T22:13:40.983Z,98944.59
2019-03-09T22:16:12.432Z,98938.38
2019-03-09T22:18:43.744Z,98934.65
2019-03-09T22:21:15.213Z,98931.73
2019-03-09T22:23:46.489Z,98931.37
2019-03-09T22:26:18.024Z,98932.75
2019-03-09T22:28:49.322Z,98923.44
2019-03-09T22:31:21.920Z,98920.81
2019-03-09T22:33:53.387Z,98917.08
2019-03-09T22:36:24.704Z,98914.30
2019-03-09T22:38:56.138Z,98915.48
2019-03-09T22:41:27.463Z,98913.45
2019-03-09T22:43:58.876Z,98906.13
2019-03-09T22:46:30.137Z,98902.18
2019-03-09T22:49:01.834Z,98898.19
2019-03-09T22:51:33.294Z,98900.14
2019-03-09T22:54:04.618Z,98897.30
2019-03-09T22:56:35.967Z,98898.33
2019-03-09T22:59:07.317Z,98891.19
2019-03-09T23:01:38.739Z,98896.19
2019-03-09T23:04:10.130Z,98898.51
2019-03-09T23:06:41.542Z,98893.84
2019-03-09T23:09:12.896Z,98891.48
2019-03-09T23:11:44.233Z,98884.84
2019-03-09T23:14:15.628Z,98887.69
2019-03-09T23:16:46.926Z,98879.20
2019-03-09T23:19:18.220Z,98877.56
2019-03-09T23:21:49.639Z,98871.80
2019-03-09T23:24:21.966Z,98872.95
2019-03-09T23:26:53.451Z,98881.87
2019-03-09T23:29:24.885Z,98884.34
2019-03-09T23:31:56.140Z,98886.84
2019-03-09T23:34:27.443Z,98886.48
2019-03-09T23:36:58.663Z,98880.36
2019-03-09T23:39:29.928Z,98877.36
2019-03-09T23:42:01.319Z,98874.72
2019-03-09T23:44:32.795Z,98867.28
2019-03-09T23:47:04.119Z,98868.88
2019-03-09T23:49:35.457Z,98854.90
2019-03-09T23:52:06.926Z,98855.73
2019-03-09T23:54:38.192Z,98853.25
2019-03-09T23:57:09.607Z,98849.13
2019-03-09T23:59:41.087Z,98848.60
